Terminal Aerodrome Forecast
Issued by NWS Austin/San Antonio, TX

Home | Current Version | Previous Version | Text Only | Print | Product List | Glossary On
Versions: 1 2 3 4 5 6 7 8 9 10 11 12 13 14 15 16 17 18 19 20 21 22 23
144
FTUS44 KEWX 252333
TAFAUS
TAF
KAUS 252333Z 2600/2706 08005KT P6SM SKC
     FM261100 17005KT P6SM OVC015
     FM261200 18004KT 4SM BR OVC007
     FM261400 18006KT 5SM BR OVC020
     FM261500 18009KT P6SM OVC035
     FM261700 19012G22KT P6SM SCT035 BKN250=

USA.gov is the U.S. government's official web portal to all federal, state and local government web resources and services.